Karinya Fr699 — MAUA8 — position and weather

sailwx.info

Track history (hours):
 
Tides and Currents Weather Stations Pressure Air Temp Water Temp Dewpoint Dewpoint Depression Visibility Wind Speed Wind Dir Waves Ship Positions

Karinya Fr699

Last reported at 2014-Oct-13 08:14 UTC. Time now 2014-Oct-20 08:13 UTC.
Position N 57°42' W 002°00'.

Length 16 m.

MMSI: 235018981.

Date/timePositionNaut miles runAvg speedWind from/ knotsBaromVisibWave heightAir tempDewpointWater temp
2014-Oct-13 08:14N 57°42' W 002°00'0 0.0
2014-Oct-13 07:33N 57°42' W 002°00'0 0.0
2014-Oct-13 06:33N 57°42' W 002°00'0 0.0
2014-Oct-13 05:34N 57°42' W 002°00'0 0.0
2014-Oct-13 04:34N 57°42' W 002°00'0 0.1
2014-Oct-13 03:33N 57°41' W 002°00'1 1.1
2014-Oct-13 02:34N 57°42' W 001°58'7 7.4
2014-Oct-13 01:33N 57°47' W 001°48'  
2014-Oct-08 22:20N 57°46' W 001°56'5 6.0
2014-Oct-08 21:33N 57°41' W 002°00'0 0.0
2014-Oct-08 20:33N 57°41' W 002°00'0 0.0
2014-Oct-08 19:33N 57°41' W 002°00'0 0.1
2014-Oct-08 18:33N 57°42' W 002°00'  
2014-Oct-03 23:33N 57°42' W 002°00'0 0.1
2014-Oct-03 22:33N 57°41' W 002°00'1 0.9
2014-Oct-03 21:33N 57°42' W 001°59'  
Track history (hours):
 
Tides and Currents Weather Stations Pressure Air Temp Water Temp Dewpoint Dewpoint Depression Visibility Wind Speed Wind Dir Waves Ship Positions

Karinya Fr699

Last reported at 2014-Oct-13 08:14 UTC. Time now 2014-Oct-20 08:13 UTC.
Position N 57°42' W 002°00'.

Length 16 m.

MMSI: 235018981.

Date/timePositionNaut miles runAvg speedWind from/ knotsBaromVisibWave heightAir tempDewpointWater temp
2014-Oct-13 08:14N 57°42' W 002°00'0 0.0
2014-Oct-13 07:33N 57°42' W 002°00'0 0.0
2014-Oct-13 06:33N 57°42' W 002°00'0 0.0
2014-Oct-13 05:34N 57°42' W 002°00'0 0.0
2014-Oct-13 04:34N 57°42' W 002°00'0 0.1
2014-Oct-13 03:33N 57°41' W 002°00'1 1.1
2014-Oct-13 02:34N 57°42' W 001°58'7 7.4
2014-Oct-13 01:33N 57°47' W 001°48'  
2014-Oct-08 22:20N 57°46' W 001°56'5 6.0
2014-Oct-08 21:33N 57°41' W 002°00'0 0.0
2014-Oct-08 20:33N 57°41' W 002°00'0 0.0
2014-Oct-08 19:33N 57°41' W 002°00'0 0.1
2014-Oct-08 18:33N 57°42' W 002°00'  
2014-Oct-03 23:33N 57°42' W 002°00'0 0.1
2014-Oct-03 22:33N 57°41' W 002°00'1 0.9
2014-Oct-03 21:33N 57°42' W 001°59'  

Dump ship's entire track history